createdAt,value
2023-01-11T00:02:40.029Z,-22.11
2023-01-11T00:07:42.632Z,-22.08
2023-01-11T00:12:45.541Z,-22.13
2023-01-11T00:17:48.117Z,-22.13
2023-01-11T00:22:51.236Z,-22.17
2023-01-11T00:27:54.724Z,-22.24
2023-01-11T00:32:58.983Z,-22.24
2023-01-11T00:38:01.632Z,-22.23
2023-01-11T00:43:22.387Z,-22.23
2023-01-11T00:48:25.014Z,-22.28
2023-01-11T00:53:27.468Z,-22.21
2023-01-11T00:58:29.920Z,-22.29
2023-01-11T01:03:32.524Z,-22.31
2023-01-11T01:08:35.885Z,-22.29
2023-01-11T01:13:56.635Z,-22.29
2023-01-11T01:19:00.323Z,-22.44
2023-01-11T01:24:02.917Z,-22.43
2023-01-11T01:29:08.544Z,-22.52
2023-01-11T01:34:12.530Z,-22.43
2023-01-11T01:39:15.323Z,-22.44
2023-01-11T01:44:54.230Z,-22.47
2023-01-11T01:49:58.788Z,-22.47
2023-01-11T01:55:05.974Z,-22.39
2023-01-11T02:00:11.186Z,-22.65
2023-01-11T02:05:16.259Z,-22.38
2023-01-11T02:10:25.440Z,-22.39
2023-01-11T02:15:29.418Z,-22.38
2023-01-11T02:20:34.867Z,-22.46
2023-01-11T02:26:05.399Z,-22.43
2023-01-11T02:31:29.747Z,-22.39
2023-01-11T02:36:54.844Z,-22.46
2023-01-11T02:42:47.665Z,-22.49
2023-01-11T02:48:05.109Z,-22.57
2023-01-11T02:53:22.777Z,-22.50
2023-01-11T02:58:30.733Z,-22.50
2023-01-11T03:03:37.631Z,-22.59
2023-01-11T03:09:03.031Z,-22.65
2023-01-11T03:14:34.805Z,-22.65
2023-01-11T03:19:53.872Z,-22.61
2023-01-11T03:25:04.538Z,-22.54
2023-01-11T03:30:17.576Z,-22.63
2023-01-11T03:35:42.352Z,-22.71
2023-01-11T03:40:54.531Z,-22.76
2023-01-11T03:46:11.234Z,-22.68
2023-01-11T03:51:18.129Z,-22.72
2023-01-11T03:56:26.566Z,-22.68
2023-01-11T04:01:30.119Z,-22.72
2023-01-11T04:06:36.529Z,-22.74
2023-01-11T04:11:39.173Z,-22.72
2023-01-11T04:16:41.783Z,-22.76
2023-01-11T04:21:44.400Z,-22.80
2023-01-11T04:26:47.059Z,-22.65
2023-01-11T04:31:49.989Z,-22.71
2023-01-11T04:36:53.412Z,-22.59
2023-01-11T04:42:14.833Z,-22.65
2023-01-11T04:47:19.057Z,-22.57
2023-01-11T04:52:22.214Z,-22.55
2023-01-11T04:57:25.611Z,-22.52
2023-01-11T05:02:28.115Z,-22.50
2023-01-11T05:07:30.743Z,-22.51
2023-01-11T05:12:33.277Z,-22.47
2023-01-11T05:17:36.203Z,-22.44
2023-01-11T05:22:38.719Z,-22.43
2023-01-11T05:27:42.304Z,-22.29
2023-01-11T05:32:44.793Z,-22.21
2023-01-11T05:37:47.492Z,-22.18
2023-01-11T05:42:50.120Z,-22.19
2023-01-11T05:47:54.077Z,-22.14
2023-01-11T05:52:56.632Z,-22.09
2023-01-11T05:57:59.538Z,-22.08
2023-01-11T06:03:02.649Z,-22.02
2023-01-11T06:08:05.436Z,-22.04
2023-01-11T06:13:26.885Z,-22.00
2023-01-11T06:18:33.563Z,-22.00
2023-01-11T06:23:38.981Z,-22.02
2023-01-11T06:28:42.291Z,-21.92
2023-01-11T06:33:45.321Z,-21.73
2023-01-11T06:38:48.738Z,-21.56
2023-01-11T06:49:10.918Z,-21.17
2023-01-11T06:54:13.537Z,-20.92
2023-01-11T06:59:16.124Z,-20.70
2023-01-11T07:04:20.056Z,-20.53
2023-01-11T07:09:25.620Z,-20.23
2023-01-11T07:14:28.803Z,-20.16
2023-01-11T07:19:31.464Z,-19.76
2023-01-11T07:24:34.177Z,-17.98
2023-01-11T07:29:36.687Z,-15.15
2023-01-11T07:34:39.186Z,-14.15
2023-01-11T07:39:43.747Z,-12.83
2023-01-11T07:44:46.733Z,-12.28
2023-01-11T07:49:52.363Z,-11.79
2023-01-11T07:54:54.886Z,-10.86
2023-01-11T07:59:57.475Z,-10.61
2023-01-11T08:05:02.239Z,-10.14
2023-01-11T08:10:07.760Z,-9.89
2023-01-11T08:15:12.771Z,-9.63
2023-01-11T08:20:15.683Z,-10.10
2023-01-11T08:25:18.751Z,-9.52
2023-01-11T08:30:21.388Z,-9.86
2023-01-11T08:35:26.050Z,-8.85
2023-01-11T08:40:30.318Z,-8.61
2023-01-11T08:45:34.355Z,-9.49
2023-01-11T08:50:39.133Z,-8.83
2023-01-11T09:01:05.729Z,-9.44
2023-01-11T09:06:08.335Z,-8.84
2023-01-11T09:11:30.746Z,-8.56
2023-01-11T09:16:33.377Z,-8.34
2023-01-11T09:21:36.735Z,-8.55
2023-01-11T09:26:41.714Z,-7.83
2023-01-11T09:31:44.248Z,-7.41
2023-01-11T09:36:49.124Z,-6.67
2023-01-11T09:42:07.681Z,-6.84
2023-01-11T09:47:46.231Z,-6.67
2023-01-11T09:53:10.068Z,-7.18
2023-01-11T09:58:28.790Z,-6.74
2023-01-11T10:03:52.014Z,-6.92
2023-01-11T10:18:33.076Z,-7.44
2023-01-11T10:20:44.918Z,-7.67
2023-01-11T10:25:51.910Z,-7.95
2023-01-11T10:30:59.092Z,-8.82
2023-01-11T10:36:21.689Z,-8.30
2023-01-11T10:41:38.828Z,-8.80
2023-01-11T10:46:45.628Z,-8.63
2023-01-11T10:51:49.689Z,-10.00
2023-01-11T11:08:17.894Z,-10.75
2023-01-11T11:13:43.386Z,-11.39
2023-01-11T11:18:46.166Z,-11.89
2023-01-11T11:23:56.129Z,-12.23
2023-01-11T11:29:11.210Z,-12.60
2023-01-11T11:34:20.039Z,-12.72
2023-01-11T11:39:30.891Z,-12.99
2023-01-11T11:44:33.848Z,-13.39
2023-01-11T11:49:38.721Z,-13.55
2023-01-11T11:54:53.115Z,-13.66
2023-01-11T12:00:03.892Z,-13.80
2023-01-11T12:05:10.722Z,-14.02
2023-01-11T12:10:20.057Z,-13.96
2023-01-11T12:15:30.841Z,-14.05
2023-01-11T12:20:39.360Z,-14.11
2023-01-11T12:26:13.232Z,-14.16
2023-01-11T12:31:31.356Z,-14.16
2023-01-11T12:36:51.453Z,-14.31
2023-01-11T12:42:21.141Z,-14.32
2023-01-11T12:47:56.153Z,-14.37
2023-01-11T12:53:26.460Z,-14.39
2023-01-11T12:58:53.223Z,-14.57
2023-01-11T13:04:34.471Z,-14.69
2023-01-11T13:09:49.927Z,-14.88
2023-01-11T13:15:10.547Z,-14.89
2023-01-11T13:20:58.739Z,-15.00
2023-01-11T13:26:16.910Z,-15.12
2023-01-11T13:31:20.683Z,-15.23
2023-01-11T13:36:28.127Z,-15.25
2023-01-11T13:41:41.257Z,-15.37
2023-01-11T13:46:55.649Z,-15.40
2023-01-11T13:52:11.479Z,-15.48
2023-01-11T13:57:41.845Z,-15.54
2023-01-11T14:02:50.257Z,-15.62
2023-01-11T14:08:01.166Z,-15.73
2023-01-11T14:13:35.372Z,-15.80
2023-01-11T14:18:41.838Z,-15.91
2023-01-11T14:23:49.692Z,-15.99
2023-01-11T14:30:00.861Z,-16.04
2023-01-11T14:35:24.624Z,-16.19
2023-01-11T14:40:39.280Z,-16.26
2023-01-11T14:46:01.050Z,-16.30
2023-01-11T14:51:30.670Z,-16.41
2023-01-11T14:56:47.300Z,-16.50
2023-01-11T15:02:17.104Z,-16.64
2023-01-11T15:07:52.211Z,-16.60
2023-01-11T15:13:43.029Z,-16.78
2023-01-11T15:18:55.864Z,-16.82
2023-01-11T15:23:59.554Z,-16.94
2023-01-11T15:29:03.420Z,-17.11
2023-01-11T15:34:25.988Z,-17.02
2023-01-11T15:39:54.556Z,-17.11
2023-01-11T15:45:28.027Z,-17.02
2023-01-11T15:51:02.648Z,-17.13
2023-01-11T15:56:31.599Z,-17.19
2023-01-11T16:01:52.767Z,-17.24
2023-01-11T16:07:03.206Z,-17.40
2023-01-11T16:12:28.220Z,-17.32
2023-01-11T16:17:31.525Z,-17.38
2023-01-11T16:22:37.652Z,-17.40
2023-01-11T16:27:40.557Z,-17.40
2023-01-11T16:32:43.608Z,-17.58
2023-01-11T16:37:51.741Z,-17.46
2023-01-11T16:42:54.323Z,-17.45
2023-01-11T16:48:14.010Z,-17.45
2023-01-11T16:53:17.995Z,-17.39
2023-01-11T16:58:34.172Z,-17.44
2023-01-11T17:03:43.978Z,-17.35
2023-01-11T17:08:55.544Z,-17.39
2023-01-11T17:14:32.109Z,-17.35
2023-01-11T17:19:37.773Z,-17.30
2023-01-11T17:24:59.980Z,-17.43
2023-01-11T17:30:06.199Z,-17.40
2023-01-11T17:35:34.393Z,-17.39
2023-01-11T17:40:58.892Z,-17.47
2023-01-11T17:46:03.122Z,-17.51
2023-01-11T17:51:06.377Z,-17.50
2023-01-11T17:56:38.036Z,-17.48
2023-01-11T18:01:47.721Z,-17.47
2023-01-11T18:06:54.735Z,-17.53
2023-01-11T18:12:21.056Z,-17.46
2023-01-11T18:17:32.577Z,-17.38
2023-01-11T18:22:42.142Z,-17.36
2023-01-11T18:27:46.776Z,-17.32
2023-01-11T18:32:49.412Z,-17.32
2023-01-11T18:37:52.174Z,-17.44
2023-01-11T18:42:54.828Z,-17.41
2023-01-11T18:47:59.113Z,-17.49
2023-01-11T18:53:02.481Z,-17.46
2023-01-11T18:58:05.044Z,-17.44
2023-01-11T19:03:09.670Z,-17.39
2023-01-11T19:08:12.264Z,-17.38
2023-01-11T19:13:19.540Z,-17.35
2023-01-11T19:18:22.967Z,-17.35
2023-01-11T19:23:25.625Z,-17.33
2023-01-11T19:28:29.594Z,-17.34
2023-01-11T19:33:32.272Z,-17.34
2023-01-11T19:38:35.100Z,-17.36
2023-01-11T19:43:44.929Z,-17.40
2023-01-11T19:48:47.585Z,-17.34
2023-01-11T19:53:50.189Z,-17.34
2023-01-11T20:04:16.843Z,-17.44
2023-01-11T20:09:38.245Z,-17.37
2023-01-11T20:14:41.011Z,-17.39
2023-01-11T20:19:43.782Z,-17.37
2023-01-11T20:25:12.705Z,-17.40
2023-01-11T20:30:15.999Z,-17.39
2023-01-11T20:35:18.721Z,-17.40
2023-01-11T20:40:21.300Z,-17.40
2023-01-11T20:45:23.995Z,-17.36
2023-01-11T20:50:26.643Z,-17.38
2023-01-11T20:55:47.341Z,-17.41
2023-01-11T21:00:50.132Z,-17.45
2023-01-11T21:05:56.532Z,-17.44
2023-01-11T21:11:10.558Z,-17.45
2023-01-11T21:16:15.983Z,-17.49
2023-01-11T21:21:34.203Z,-17.51
2023-01-11T21:26:36.828Z,-17.54
2023-01-11T21:31:40.260Z,-17.58
2023-01-11T21:36:43.923Z,-17.62
2023-01-11T21:41:55.573Z,-17.65
2023-01-11T21:47:06.593Z,-17.67
2023-01-11T21:52:09.308Z,-17.73
2023-01-11T21:57:30.407Z,-17.76
2023-01-11T22:02:33.047Z,-17.78
2023-01-11T22:07:37.965Z,-17.82
2023-01-11T22:12:40.566Z,-17.83
2023-01-11T22:17:43.496Z,-17.82
2023-01-11T22:22:46.273Z,-17.87
2023-01-11T22:27:48.807Z,-17.92
2023-01-11T22:32:51.356Z,-18.02
2023-01-11T22:37:53.926Z,-17.91
2023-01-11T22:42:57.255Z,-17.96
2023-01-11T22:47:59.839Z,-17.94
2023-01-11T22:53:02.459Z,-18.03
2023-01-11T22:58:06.759Z,-18.04
2023-01-11T23:03:11.764Z,-18.06
2023-01-11T23:08:15.037Z,-18.02
2023-01-11T23:13:46.616Z,-18.01
2023-01-11T23:18:49.241Z,-18.12
2023-01-11T23:24:11.127Z,-18.03
2023-01-11T23:29:13.942Z,-18.02
2023-01-11T23:34:16.747Z,-18.02
2023-01-11T23:39:19.529Z,-18.14
2023-01-11T23:44:40.165Z,-18.06
2023-01-11T23:49:43.989Z,-18.02
2023-01-11T23:54:47.389Z,-18.03
2023-01-11T23:59:50.094Z,-18.04
